Time;durP1;ratioP1;P1;durP2;ratioP2;P2;SDS_P1;SDS_P2;PMS_P1;PMS_P2;Temp;Humidity;BMP_temperature;BMP_pressure;BME280_temperature;BME280_humidity;BME280_pressure;Samples;Min_cycle;Max_cycle;Signal;HPM_P1;HPM_P2
2022/01/29 00:00:37;;;;;;;1.10;0.40;;;;;;;-0.17;76.71;98230.23;105136;1271;61169;-25
2022/01/29 00:03:07;;;;;;;0.50;0.40;;;;;;;-0.22;76.85;98246.53;105145;1272;61047;-24
2022/01/29 00:05:36;;;;;;;0.30;0.30;;;;;;;-0.45;77.05;98249.56;105039;1271;73802;-24
2022/01/29 00:08:05;;;;;;;0.50;0.40;;;;;;;-0.31;77.28;98259.92;105102;1271;76034;-24
2022/01/29 00:10:33;;;;;;;0.40;0.30;;;;;;;-0.04;76.30;98267.00;104932;1271;73466;-24
2022/01/29 00:13:02;;;;;;;0.30;0.30;;;;;;;-0.01;76.06;98267.36;105167;1271;61260;-24
2022/01/29 00:15:30;;;;;;;0.20;0.20;;;;;;;-0.16;76.23;98261.44;105133;1271;61930;-24
2022/01/29 00:17:58;;;;;;;0.60;0.40;;;;;;;-0.26;76.93;98274.73;104992;1272;72767;-24
2022/01/29 00:20:27;;;;;;;0.30;0.30;;;;;;;-0.36;77.25;98282.02;104843;1274;76019;-24
2022/01/29 00:22:55;;;;;;;0.30;0.30;;;;;;;-0.25;76.85;98271.95;105111;1271;74365;-24
2022/01/29 00:25:24;;;;;;;0.40;0.40;;;;;;;-0.01;75.98;98279.66;105138;1271;61052;-24
2022/01/29 00:27:53;;;;;;;0.40;0.40;;;;;;;0.05;76.07;98282.71;105127;1271;61202;-25
2022/01/29 00:30:29;;;;;;;0.40;0.40;;;;;;;-0.12;77.02;98283.91;105083;1271;75714;-24
2022/01/29 00:32:57;;;;;;;1.00;0.50;;;;;;;-0.33;77.60;98288.70;105064;1271;74944;-24
2022/01/29 00:35:26;;;;;;;1.00;0.40;;;;;;;-0.43;78.69;98304.02;104879;1271;74346;-25
2022/01/29 00:37:55;;;;;;;0.40;0.40;;;;;;;-0.11;77.55;98292.05;104799;1271;61116;-24
2022/01/29 00:40:24;;;;;;;0.40;0.40;;;;;;;0.04;77.34;98303.77;104786;1271;61137;-25
2022/01/29 00:42:52;;;;;;;0.50;0.40;;;;;;;-0.04;77.45;98306.92;104815;1271;75360;-24
2022/01/29 00:45:21;;;;;;;0.50;0.50;;;;;;;-0.13;78.45;98307.17;104987;1271;76109;-24
2022/01/29 00:47:49;;;;;;;0.60;0.50;;;;;;;-0.37;79.71;98306.64;104983;1271;74504;-24
2022/01/29 00:50:17;;;;;;;2.80;0.60;;;;;;;-0.49;80.37;98322.04;104754;1271;62969;-24
2022/01/29 00:52:47;;;;;;;0.40;0.30;;;;;;;-0.22;78.84;98296.86;104859;1272;61156;-25
2022/01/29 00:55:15;;;;;;;1.00;0.50;;;;;;;0.01;77.63;98323.72;104841;1271;75602;-24
2022/01/29 00:57:44;;;;;;;0.50;0.40;;;;;;;-0.18;77.87;98314.09;104822;1271;76004;-24
2022/01/29 01:00:13;;;;;;;0.60;0.40;;;;;;;-0.38;78.90;98318.12;104774;1271;74405;-24
2022/01/29 01:02:42;;;;;;;1.50;0.70;;;;;;;-0.60;80.00;98322.06;104991;1271;61079;-24
2022/01/29 01:05:10;;;;;;;0.30;0.30;;;;;;;-0.46;79.29;98329.55;105147;1271;61035;-24
2022/01/29 01:07:40;;;;;;;0.60;0.60;;;;;;;-0.10;78.29;98344.41;105094;1271;73060;-23
2022/01/29 01:10:09;;;;;;;1.10;0.60;;;;;;;-0.28;78.28;98328.35;105098;1271;76072;-24
2022/01/29 01:12:37;;;;;;;0.80;0.40;;;;;;;-0.32;78.35;98334.04;104836;1271;73434;-23
2022/01/29 01:15:06;;;;;;;0.50;0.50;;;;;;;-0.48;78.42;98324.74;104790;1271;61226;-23
2022/01/29 01:17:35;;;;;;;0.90;0.50;;;;;;;-0.67;78.62;98330.36;104800;1271;61172;-23
2022/01/29 01:20:04;;;;;;;1.70;0.40;;;;;;;-0.43;77.15;98334.91;104815;1274;75600;-23
2022/01/29 01:22:34;;;;;;;0.40;0.40;;;;;;;-0.13;75.08;98319.11;104828;1274;74493;-23
2022/01/29 01:25:03;;;;;;;0.80;0.60;;;;;;;-0.11;74.69;98338.13;105126;1271;74259;-24
2022/01/29 01:27:32;;;;;;;0.60;0.60;;;;;;;-0.30;74.42;98334.98;105039;1271;61211;-23
2022/01/29 01:30:00;;;;;;;0.20;0.20;;;;;;;-0.43;74.65;98341.73;105156;1271;61057;-23
2022/01/29 01:32:30;;;;;;;0.20;0.20;;;;;;;-0.50;74.91;98349.90;104872;1269;75330;-23
2022/01/29 01:35:08;;;;;;;0.50;0.30;;;;;;;-0.68;74.66;98333.34;104840;1271;75808;-23
2022/01/29 01:37:53;;;;;;;0.90;0.40;;;;;;;-0.57;73.83;98325.14;104757;1274;74462;-23
2022/01/29 01:40:23;;;;;;;0.20;0.20;;;;;;;-0.27;72.31;98341.29;104990;1271;61143;-23
2022/01/29 01:42:58;;;;;;;0.30;0.30;;;;;;;-0.34;72.12;98344.89;104783;1271;61066;-24
2022/01/29 01:45:28;;;;;;;3.40;0.40;;;;;;;-0.44;72.43;98355.39;104787;1271;74429;-24
2022/01/29 01:47:56;;;;;;;0.50;0.30;;;;;;;-0.55;72.61;98357.96;104853;1271;75021;-23
2022/01/29 01:50:25;;;;;;;0.30;0.30;;;;;;;-0.62;72.31;98347.39;104762;1271;72161;-23
2022/01/29 01:52:53;;;;;;;0.60;0.30;;;;;;;-0.78;72.27;98360.36;104891;1271;61139;-23
2022/01/29 01:55:22;;;;;;;0.30;0.30;;;;;;;-0.74;72.03;98358.98;104758;1271;61120;-24
2022/01/29 01:57:52;;;;;;;0.20;0.20;;;;;;;-0.32;71.05;98372.91;104880;1271;74031;-24
2022/01/29 02:00:20;;;;;;;0.30;0.30;;;;;;;-0.25;69.53;98362.50;104828;1271;75147;-24
2022/01/29 02:02:49;;;;;;;0.20;0.20;;;;;;;-0.31;69.47;98362.96;104908;1271;74549;-24
2022/01/29 02:05:17;;;;;;;0.40;0.40;;;;;;;-0.50;69.81;98360.65;104781;1271;61157;-24
2022/01/29 02:07:46;;;;;;;1.10;0.30;;;;;;;-0.69;70.50;98366.28;104839;1271;61028;-24
2022/01/29 02:10:16;;;;;;;0.40;0.40;;;;;;;-0.82;70.15;98357.34;104829;1271;75833;-24
2022/01/29 02:12:48;;;;;;;0.30;0.30;;;;;;;-0.85;70.74;98377.04;104785;1271;76270;-24
2022/01/29 02:15:18;;;;;;;0.30;0.30;;;;;;;-0.93;70.72;98372.31;104672;1274;74422;-24
2022/01/29 02:17:47;;;;;;;0.30;0.30;;;;;;;-0.92;71.32;98384.05;104683;1271;61576;-24
2022/01/29 02:20:22;;;;;;;0.40;0.40;;;;;;;-0.49;69.78;98377.79;104771;1271;61768;-24
2022/01/29 02:22:50;;;;;;;0.20;0.20;;;;;;;-0.41;68.78;98382.38;104757;1271;74659;-25
2022/01/29 02:25:37;;;;;;;0.30;0.30;;;;;;;-0.36;68.07;98382.84;105062;1271;74833;-24
2022/01/29 02:28:09;;;;;;;0.20;0.20;;;;;;;-0.57;69.21;98395.73;105098;1271;74488;-25
2022/01/29 02:30:39;;;;;;;0.90;0.30;;;;;;;-0.75;69.50;98395.88;104967;1274;61297;-25
2022/01/29 02:33:11;;;;;;;0.20;0.20;;;;;;;-0.82;69.91;98392.44;104727;1271;62362;-24
2022/01/29 02:35:44;;;;;;;0.20;0.20;;;;;;;-0.94;70.72;98412.21;104789;1271;74825;-25
2022/01/29 02:38:13;;;;;;;0.80;0.30;;;;;;;-0.99;71.01;98411.63;104636;1277;76145;-24
2022/01/29 02:40:46;;;;;;;1.00;0.40;;;;;;;-0.88;70.93;98421.34;104887;1271;73338;-24
2022/01/29 02:43:17;;;;;;;0.20;0.20;;;;;;;-0.50;69.90;98421.86;104872;1271;61137;-25
2022/01/29 02:45:46;;;;;;;0.20;0.20;;;;;;;-0.54;69.34;98422.55;104774;1271;61192;-24
2022/01/29 02:48:14;;;;;;;0.20;0.20;;;;;;;-0.65;69.95;98423.72;104722;1271;74508;-24
2022/01/29 02:50:43;;;;;;;1.00;0.30;;;;;;;-0.70;70.69;98427.52;104746;1271;76027;-24
2022/01/29 02:53:11;;;;;;;0.30;0.30;;;;;;;-0.85;70.92;98431.11;104801;1271;73467;-24
2022/01/29 02:55:40;;;;;;;0.30;0.30;;;;;;;-1.00;71.12;98435.66;104846;1271;61154;-24
2022/01/29 02:58:08;;;;;;;0.30;0.20;;;;;;;-1.09;71.94;98438.29;104774;1271;60993;-24
2022/01/29 03:00:37;;;;;;;0.50;0.20;;;;;;;-1.12;72.56;98442.66;104860;1273;76152;-24
2022/01/29 03:03:06;;;;;;;0.20;0.20;;;;;;;-0.82;70.84;98437.96;104740;1274;75264;-24
2022/01/29 03:05:36;;;;;;;1.50;0.20;;;;;;;-0.54;70.27;98452.03;104741;1271;74708;-24
2022/01/29 03:08:05;;;;;;;0.30;0.30;;;;;;;-0.58;70.00;98457.67;104805;1271;61177;-25
2022/01/29 03:10:33;;;;;;;0.20;0.20;;;;;;;-0.76;70.16;98453.00;104826;1271;61988;-24
2022/01/29 03:13:03;;;;;;;0.60;0.20;;;;;;;-0.88;71.28;98469.23;105059;1271;74192;-24
2022/01/29 03:15:31;;;;;;;0.20;0.20;;;;;;;-0.93;71.02;98463.66;104901;1271;74993;-24
2022/01/29 03:17:59;;;;;;;0.20;0.20;;;;;;;-1.00;70.33;98465.00;104844;1271;74033;-24
2022/01/29 03:20:30;;;;;;;0.40;0.40;;;;;;;-1.08;71.29;98468.20;104773;1271;61291;-24
2022/01/29 03:22:59;;;;;;;1.70;0.20;;;;;;;-1.17;71.36;98473.03;104876;1271;61073;-24
2022/01/29 03:25:27;;;;;;;0.20;0.20;;;;;;;-0.87;70.23;98480.59;104782;1271;74786;-24
2022/01/29 03:27:56;;;;;;;0.20;0.20;;;;;;;-0.50;68.68;98481.36;104748;1271;75349;-24
2022/01/29 03:30:24;;;;;;;0.20;0.20;;;;;;;-0.53;68.54;98484.40;104864;1271;74433;-24
2022/01/29 03:32:53;;;;;;;0.60;0.20;;;;;;;-0.65;68.93;98493.61;104745;1272;60968;-24
2022/01/29 03:35:21;;;;;;;0.20;0.20;;;;;;;-0.81;68.82;98490.23;104845;1271;61980;-24
2022/01/29 03:37:49;;;;;;;0.20;0.20;;;;;;;-0.82;68.87;98497.95;104847;1270;75500;-24
2022/01/29 03:40:18;;;;;;;0.20;0.20;;;;;;;-1.02;69.17;98502.73;104804;1271;76009;-24
2022/01/29 03:42:59;;;;;;;0.20;0.20;;;;;;;-1.03;68.44;98490.80;104852;1271;74187;-24
2022/01/29 03:45:28;;;;;;;0.90;0.40;;;;;;;-1.11;69.06;98495.92;105082;1271;61097;-24
2022/01/29 03:47:56;;;;;;;1.30;1.20;;;;;;;-1.13;69.16;98507.61;105029;1271;61052;-24
2022/01/29 03:50:25;;;;;;;0.20;0.20;;;;;;;-1.12;69.28;98508.09;104847;1271;75286;-24
2022/01/29 03:52:54;;;;;;;1.40;0.20;;;;;;;-0.79;68.71;98494.05;104887;1271;73756;-24
2022/01/29 03:55:22;;;;;;;0.20;0.20;;;;;;;-0.50;68.90;98494.34;104863;1271;74353;-24
2022/01/29 03:57:51;;;;;;;0.30;0.30;;;;;;;-0.66;70.40;98500.85;104967;1271;61080;-24
2022/01/29 04:00:19;;;;;;;1.50;0.40;;;;;;;-0.84;71.75;98499.88;105146;1271;62013;-24
2022/01/29 04:02:47;;;;;;;0.20;0.20;;;;;;;-1.15;73.63;98511.61;104890;1271;75233;-24
2022/01/29 04:05:16;;;;;;;0.20;0.20;;;;;;;-1.29;74.97;98518.31;104822;1271;75946;-24
2022/01/29 04:07:44;;;;;;;2.20;0.30;;;;;;;-1.48;76.36;98524.02;104770;1271;73174;-24
2022/01/29 04:10:13;;;;;;;0.20;0.20;;;;;;;-1.17;76.01;98527.69;104827;1271;61288;-24
2022/01/29 04:12:47;;;;;;;0.80;0.40;;;;;;;-0.90;75.24;98533.73;104975;1271;61064;-25
2022/01/29 04:15:15;;;;;;;1.10;0.30;;;;;;;-1.02;75.24;98525.36;104812;1271;72863;-23
2022/01/29 04:17:44;;;;;;;2.00;0.40;;;;;;;-1.08;75.89;98538.41;104881;1271;75770;-23
2022/01/29 04:20:13;;;;;;;1.00;0.50;;;;;;;-1.38;76.47;98538.08;104791;1271;73508;-24
2022/01/29 04:22:41;;;;;;;0.40;0.30;;;;;;;-1.54;77.23;98528.85;105016;1271;61004;-24
2022/01/29 04:25:09;;;;;;;0.60;0.40;;;;;;;-1.46;76.92;98541.98;105049;1271;61732;-25
2022/01/29 04:27:42;;;;;;;2.30;0.50;;;;;;;-1.09;75.45;98549.67;105203;1271;75551;-24
2022/01/29 04:30:18;;;;;;;0.80;0.40;;;;;;;-1.09;74.90;98541.02;105124;1271;74974;-24
2022/01/29 04:35:21;;;;;;;1.00;0.50;;;;;;;-1.46;75.50;98553.39;104789;1271;61060;-24
2022/01/29 04:37:50;;;;;;;1.30;0.60;;;;;;;-1.60;75.56;98556.69;104806;1271;61074;-25
2022/01/29 04:40:18;;;;;;;0.30;0.30;;;;;;;-1.62;75.80;98578.55;104893;1271;75781;-24
2022/01/29 04:42:47;;;;;;;0.20;0.20;;;;;;;-1.21;74.54;98570.97;104870;1271;75981;-24
2022/01/29 04:45:15;;;;;;;0.50;0.50;;;;;;;-0.99;73.56;98587.96;104788;1271;74603;-24
2022/01/29 04:47:44;;;;;;;0.80;0.40;;;;;;;-1.17;73.52;98584.07;104741;1274;61323;-24
2022/01/29 04:50:13;;;;;;;0.70;0.50;;;;;;;-1.19;73.41;98586.05;104820;1271;61072;-25
2022/01/29 04:52:41;;;;;;;0.50;0.30;;;;;;;-1.36;73.90;98573.29;104814;1271;75291;-24
2022/01/29 04:55:10;;;;;;;1.50;0.40;;;;;;;-1.50;74.37;98587.27;104867;1271;75952;-24
2022/01/29 04:57:40;;;;;;;0.30;0.30;;;;;;;-1.53;73.30;98579.38;105064;1271;73426;-24
2022/01/29 05:00:19;;;;;;;1.50;0.30;;;;;;;-1.55;73.68;98584.89;104762;1271;62219;-24
2022/01/29 05:02:48;;;;;;;0.60;0.40;;;;;;;-1.11;71.63;98581.96;104685;1271;61033;-24
2022/01/29 05:05:17;;;;;;;2.00;0.60;;;;;;;-1.05;70.57;98590.08;104693;1271;74797;-24
2022/01/29 05:07:46;;;;;;;1.30;0.30;;;;;;;-1.18;70.47;98584.30;104923;1270;75189;-24
2022/01/29 05:10:15;;;;;;;1.50;0.40;;;;;;;-1.31;71.22;98597.43;104754;1274;74297;-24
2022/01/29 05:12:52;;;;;;;1.60;0.90;;;;;;;-1.37;70.80;98609.40;104854;1271;61287;-24
2022/01/29 05:15:47;;;;;;;1.20;0.50;;;;;;;-1.51;71.07;98597.86;104754;1271;61030;-24
2022/01/29 05:26:55;;;;;;;0.30;0.30;;;;;;;-1.05;68.09;98602.52;105054;1271;61023;-24
2022/01/29 05:29:26;;;;;;;0.50;0.30;;;;;;;-1.05;67.89;98613.94;104956;1271;61175;-23
2022/01/29 05:31:55;;;;;;;0.20;0.20;;;;;;;-1.12;68.77;98637.04;104858;1271;75788;-23
2022/01/29 05:34:23;;;;;;;0.60;0.50;;;;;;;-1.21;68.42;98629.38;104791;1274;76365;-24
2022/01/29 05:36:53;;;;;;;1.60;0.70;;;;;;;-1.44;68.70;98626.05;104812;1271;73424;-24
2022/01/29 05:39:22;;;;;;;1.40;0.40;;;;;;;-1.51;68.93;98638.39;104803;1271;61026;-23
2022/01/29 05:41:50;;;;;;;2.20;0.90;;;;;;;-1.61;69.90;98638.94;104783;1271;61020;-24
2022/01/29 05:44:19;;;;;;;0.60;0.30;;;;;;;-1.74;69.55;98636.35;105027;1271;75687;-24
2022/01/29 05:46:50;;;;;;;0.80;0.50;;;;;;;-1.78;70.19;98648.79;104915;1271;75955;-24
2022/01/29 05:49:19;;;;;;;0.40;0.20;;;;;;;-1.59;69.41;98644.30;104793;1273;74691;-24
2022/01/29 05:51:47;;;;;;;2.70;0.50;;;;;;;-1.19;68.33;98663.73;104847;1271;61153;-23
2022/01/29 05:54:16;;;;;;;1.90;0.40;;;;;;;-1.18;68.04;98664.71;104788;1271;61083;-23
2022/01/29 05:56:45;;;;;;;0.50;0.40;;;;;;;-1.29;68.35;98670.41;104846;1271;75455;-23
2022/01/29 05:59:13;;;;;;;0.40;0.40;;;;;;;-1.46;69.19;98681.11;104819;1271;75712;-24
2022/01/29 06:01:42;;;;;;;1.20;0.40;;;;;;;-1.52;68.82;98681.48;104840;1270;74249;-24
2022/01/29 06:04:10;;;;;;;0.40;0.40;;;;;;;-1.63;68.72;98678.67;104852;1271;61298;-23
2022/01/29 06:06:40;;;;;;;0.60;0.50;;;;;;;-1.71;69.15;98690.36;104812;1271;61168;-24
2022/01/29 06:09:09;;;;;;;1.60;0.40;;;;;;;-1.81;69.78;98709.98;104821;1271;74012;-23
2022/01/29 06:11:37;;;;;;;0.50;0.40;;;;;;;-1.88;70.23;98704.27;104784;1271;76075;-23
2022/01/29 06:14:05;;;;;;;0.40;0.40;;;;;;;-1.63;69.42;98709.13;104967;1271;73187;-23
2022/01/29 06:16:34;;;;;;;0.50;0.40;;;;;;;-1.30;67.98;98714.56;105128;1271;61146;-24
2022/01/29 06:19:02;;;;;;;0.30;0.30;;;;;;;-1.41;67.18;98710.56;104766;1271;327842;-24
2022/01/29 06:21:31;;;;;;;0.60;0.50;;;;;;;-1.45;67.69;98720.41;104817;1271;75172;-23
2022/01/29 06:24:00;;;;;;;1.10;0.40;;;;;;;-1.54;67.91;98719.73;104810;1271;75013;-24
2022/01/29 06:26:30;;;;;;;0.90;0.40;;;;;;;-1.65;68.06;98722.02;104871;1271;70551;-23
2022/01/29 06:28:59;;;;;;;0.50;0.40;;;;;;;-1.79;67.88;98723.33;104827;1269;61157;-23
2022/01/29 06:31:27;;;;;;;1.50;0.50;;;;;;;-1.77;68.07;98726.33;105136;1271;61844;-23
2022/01/29 06:33:56;;;;;;;0.90;0.50;;;;;;;-1.84;68.61;98737.81;105143;1271;74853;-23
2022/01/29 06:36:24;;;;;;;1.00;0.60;;;;;;;-1.91;68.08;98730.55;105083;1271;76003;-24
2022/01/29 06:38:52;;;;;;;1.10;0.50;;;;;;;-1.95;68.68;98733.61;104780;1271;74486;-23
2022/01/29 06:41:21;;;;;;;0.30;0.30;;;;;;;-2.01;68.09;98732.80;104815;1271;61173;-23
2022/01/29 06:43:49;;;;;;;2.10;0.90;;;;;;;-2.01;67.78;98733.16;104817;1271;61054;-23
2022/01/29 06:46:18;;;;;;;1.00;0.40;;;;;;;-2.00;67.94;98729.02;104866;1271;75825;-23
2022/01/29 06:48:47;;;;;;;1.60;0.50;;;;;;;-1.68;67.26;98750.86;105037;1271;74467;-23
2022/01/29 06:51:16;;;;;;;0.50;0.40;;;;;;;-1.46;65.88;98757.56;104908;1271;72523;-23
2022/01/29 06:53:45;;;;;;;0.70;0.60;;;;;;;-1.35;65.44;98755.48;104722;1271;61643;-23
2022/01/29 06:56:13;;;;;;;2.50;0.50;;;;;;;-1.53;65.08;98750.50;104836;1271;61066;-23
2022/01/29 06:58:41;;;;;;;0.60;0.40;;;;;;;-1.73;65.46;98749.85;104893;1271;74298;-23
2022/01/29 07:01:31;;;;;;;1.20;0.50;;;;;;;-1.80;66.20;98751.30;104776;1271;75801;-23
2022/01/29 07:04:00;;;;;;;1.20;0.50;;;;;;;-1.89;66.17;98761.30;104846;1271;72645;-23
2022/01/29 07:06:28;;;;;;;1.00;0.70;;;;;;;-1.96;66.19;98756.10;104837;1271;61078;-23
2022/01/29 07:08:58;;;;;;;0.90;0.30;;;;;;;-1.98;65.86;98752.44;104868;1271;62544;-23
2022/01/29 07:11:26;;;;;;;1.00;0.50;;;;;;;-2.01;66.33;98756.61;104866;1271;75988;-23
2022/01/29 07:14:03;;;;;;;1.70;0.50;;;;;;;-2.10;65.84;98754.88;104874;1271;75764;-24
2022/01/29 07:16:34;;;;;;;0.90;0.20;;;;;;;-2.13;65.87;98761.10;104802;1271;73434;-23
2022/01/29 07:19:03;;;;;;;1.40;0.60;;;;;;;-2.16;66.03;98771.06;104711;1271;61150;-24
2022/01/29 07:21:31;;;;;;;0.40;0.30;;;;;;;-2.19;66.28;98765.91;105033;1271;62204;-23
2022/01/29 07:23:59;;;;;;;1.30;0.60;;;;;;;-2.20;67.33;98767.97;105115;1271;73687;-23
2022/01/29 07:26:28;;;;;;;0.60;0.50;;;;;;;-2.23;66.78;98767.23;104943;1271;75046;-23
2022/01/29 07:28:57;;;;;;;2.80;0.60;;;;;;;-2.25;66.97;98762.38;104858;1271;73162;-23
2022/01/29 07:31:25;;;;;;;2.10;0.50;;;;;;;-2.26;66.84;98770.89;104830;1271;61167;-23
2022/01/29 07:33:54;;;;;;;5.90;0.70;;;;;;;-2.25;66.72;98774.94;104862;1271;62061;-23
2022/01/29 07:36:23;;;;;;;2.30;1.10;;;;;;;-2.23;67.24;98782.36;104811;1271;74529;-23
2022/01/29 07:38:51;;;;;;;0.90;0.40;;;;;;;-1.84;66.70;98784.95;104842;1271;74989;-23
2022/01/29 07:41:20;;;;;;;1.00;0.50;;;;;;;-1.39;64.72;98772.47;104861;1271;74161;-23
2022/01/29 07:46:08;;;;;;;3.50;1.00;;;;;;;-1.49;64.91;98788.30;101694;1310;601104;-24
2022/01/29 07:48:38;;;;;;;0.50;0.40;;;;;;;-1.58;64.66;98789.33;104455;1284;61026;-24
2022/01/29 07:51:06;;;;;;;0.50;0.50;;;;;;;-1.71;65.58;98796.08;104510;1283;61240;-24
2022/01/29 07:53:34;;;;;;;0.90;0.60;;;;;;;-1.76;65.95;98780.27;104491;1284;73658;-24
2022/01/29 07:56:03;;;;;;;0.50;0.30;;;;;;;-1.82;66.68;98798.51;104511;1284;76051;-24
2022/01/29 07:58:32;;;;;;;1.00;0.60;;;;;;;-1.83;67.92;98800.06;105185;1269;73588;-24
2022/01/29 08:01:01;;;;;;;3.20;1.00;;;;;;;-1.94;67.98;98798.73;104754;1269;61626;-24
2022/01/29 08:03:29;;;;;;;2.60;0.80;;;;;;;-1.92;68.05;98796.62;105016;1271;61449;-24
2022/01/29 08:05:59;;;;;;;1.20;0.60;;;;;;;-2.01;67.52;98789.79;105077;1269;72542;-25
2022/01/29 08:08:27;;;;;;;1.10;0.60;;;;;;;-2.15;68.67;98802.67;105009;1271;76111;-24
2022/01/29 08:10:56;;;;;;;1.40;0.70;;;;;;;-2.14;69.03;98798.04;104957;1271;73455;-24
2022/01/29 08:13:25;;;;;;;1.50;0.50;;;;;;;-1.83;67.73;98797.51;104953;1271;61121;-24
2022/01/29 08:15:53;;;;;;;0.90;0.70;;;;;;;-1.39;66.47;98810.42;104972;1271;62046;-24
2022/01/29 08:18:22;;;;;;;3.10;0.90;;;;;;;-1.33;65.94;98804.77;104959;1271;74935;-24
2022/01/29 08:20:50;;;;;;;0.70;0.50;;;;;;;-1.50;66.09;98812.39;104926;1271;75943;-24
2022/01/29 08:23:18;;;;;;;4.70;0.70;;;;;;;-1.62;66.54;98817.05;104924;1271;73586;-24
2022/01/29 08:25:48;;;;;;;2.90;0.80;;;;;;;-1.73;66.71;98821.02;104900;1271;61027;-24
2022/01/29 08:28:16;;;;;;;1.20;0.60;;;;;;;-1.82;66.99;98810.10;104963;1271;61071;-25
2022/01/29 08:30:45;;;;;;;2.50;0.60;;;;;;;-1.94;66.46;98817.28;104980;1271;74309;-25
2022/01/29 08:33:18;;;;;;;2.30;0.70;;;;;;;-2.04;66.78;98814.23;104772;1271;76006;-25
2022/01/29 08:35:47;;;;;;;2.40;0.70;;;;;;;-2.12;66.42;98827.77;104882;1271;74445;-23
2022/01/29 08:38:15;;;;;;;1.80;0.70;;;;;;;-2.16;67.12;98829.58;104882;1271;61208;-23
2022/01/29 08:40:44;;;;;;;1.30;0.70;;;;;;;-2.22;67.28;98831.65;104954;1270;61072;-23
2022/01/29 08:43:12;;;;;;;1.30;0.80;;;;;;;-2.23;67.07;98827.42;104954;1271;74761;-23
2022/01/29 08:45:41;;;;;;;1.10;0.50;;;;;;;-2.20;67.68;98824.77;104938;1271;75797;-21
2022/01/29 08:48:09;;;;;;;0.70;0.50;;;;;;;-2.31;66.87;98821.38;104773;1271;73437;-23
2022/01/29 08:50:38;;;;;;;0.40;0.40;;;;;;;-2.30;67.03;98839.89;104983;1271;61164;-23
2022/01/29 08:53:07;;;;;;;1.70;0.90;;;;;;;-2.28;67.58;98843.41;104984;1271;61044;-23
2022/01/29 08:55:38;;;;;;;0.70;0.40;;;;;;;-2.31;67.01;98833.63;105011;1271;75220;-21
2022/01/29 08:58:13;;;;;;;5.50;1.10;;;;;;;-2.29;66.83;98833.05;105085;1271;76066;-24
2022/01/29 09:00:44;;;;;;;0.90;0.60;;;;;;;-2.32;66.70;98837.75;105150;1271;73413;-23
2022/01/29 09:03:16;;;;;;;2.40;0.70;;;;;;;-2.32;67.21;98845.73;105128;1271;61324;-22
2022/01/29 09:05:45;;;;;;;1.10;0.80;;;;;;;-1.86;64.40;98839.47;105007;1271;61079;-22
2022/01/29 09:08:15;;;;;;;1.80;0.70;;;;;;;-1.54;63.39;98837.70;105175;1271;74754;-22
2022/01/29 09:10:43;;;;;;;0.70;0.60;;;;;;;-1.55;63.04;98838.95;104877;1271;76254;-23
2022/01/29 09:13:14;;;;;;;1.80;1.00;;;;;;;-1.64;62.96;98836.18;104965;1271;74397;-22
2022/01/29 09:15:43;;;;;;;0.80;0.80;;;;;;;-1.68;63.16;98842.09;104981;1271;61067;-22
2022/01/29 09:18:12;;;;;;;6.00;1.00;;;;;;;-1.75;63.38;98847.13;105121;1271;62003;-22
2022/01/29 09:20:41;;;;;;;1.20;0.80;;;;;;;-1.87;64.01;98855.70;105173;1271;74665;-22
2022/01/29 09:23:15;;;;;;;1.00;0.80;;;;;;;-1.92;64.22;98853.48;105116;1271;75240;-22
2022/01/29 09:25:43;;;;;;;0.80;0.50;;;;;;;-1.93;64.15;98853.83;105115;1271;73106;-24
2022/01/29 09:28:12;;;;;;;1.80;0.80;;;;;;;-1.96;64.65;98857.69;105120;1271;61106;-22
2022/01/29 09:30:41;;;;;;;2.80;0.70;;;;;;;-2.07;63.68;98849.70;104848;1271;61088;-22
2022/01/29 09:33:10;;;;;;;1.80;0.60;;;;;;;-2.07;64.58;98861.61;104716;1274;71051;-22
2022/01/29 09:35:38;;;;;;;3.00;0.80;;;;;;;-2.14;63.97;98851.12;104886;1271;75170;-22
2022/01/29 09:38:07;;;;;;;2.20;0.60;;;;;;;-2.15;63.87;98833.63;104878;1271;74172;-23
2022/01/29 09:40:35;;;;;;;15.10;1.50;;;;;;;-2.17;63.72;98844.59;105034;1271;61143;-22
2022/01/29 09:43:07;;;;;;;0.90;0.50;;;;;;;-2.20;64.09;98849.29;105063;1271;60978;-22
2022/01/29 09:45:36;;;;;;;0.70;0.50;;;;;;;-2.22;63.27;98849.00;105157;1271;75528;-23
2022/01/29 09:48:12;;;;;;;2.00;0.70;;;;;;;-2.19;64.35;98859.44;105117;1271;76063;-23
2022/01/29 09:50:41;;;;;;;1.10;0.50;;;;;;;-2.22;64.02;98858.38;105066;1271;72968;-23
2022/01/29 09:53:09;;;;;;;4.60;1.00;;;;;;;-2.24;63.50;98856.88;104865;1271;61079;-24
2022/01/29 09:55:38;;;;;;;1.50;0.50;;;;;;;-2.15;63.68;98858.28;104878;1271;61205;-22
2022/01/29 09:58:06;;;;;;;2.40;1.00;;;;;;;-2.16;62.94;98860.19;104859;1271;73117;-22
2022/01/29 10:00:36;;;;;;;2.10;0.50;;;;;;;-2.18;62.43;98865.53;104824;1271;74238;-24
2022/01/29 10:03:15;;;;;;;0.50;0.50;;;;;;;-2.17;62.51;98862.09;104746;1271;74355;-22
2022/01/29 10:05:45;;;;;;;2.90;0.70;;;;;;;-2.16;62.48;98864.45;104652;1274;61542;-23
2022/01/29 10:08:14;;;;;;;0.90;0.60;;;;;;;-2.19;62.39;98863.85;104737;1271;62008;-22
2022/01/29 10:10:48;;;;;;;1.30;0.40;;;;;;;-2.16;61.86;98858.31;104903;1271;73689;-24
2022/01/29 10:13:34;;;;;;;1.30;0.70;;;;;;;-2.21;61.14;98852.52;104720;1274;75803;-24
2022/01/29 10:16:20;;;;;;;3.30;0.80;;;;;;;-2.19;61.63;98847.20;104836;1274;72906;-24
2022/01/29 10:19:03;;;;;;;2.20;0.70;;;;;;;-2.22;61.49;98845.41;104626;1274;61179;-24
2022/01/29 10:21:33;;;;;;;1.30;0.70;;;;;;;-2.15;62.61;98858.29;104885;1271;61270;-25
2022/01/29 10:24:07;;;;;;;1.50;0.60;;;;;;;-2.19;62.28;98854.86;104813;1271;72778;-24
2022/01/29 10:26:37;;;;;;;;;;;;;;;-2.17;62.81;98856.66;104655;1272;76497;-22
2022/01/29 10:29:07;;;;;;;2.90;1.10;;;;;;;-2.17;63.50;98852.58;104881;1271;72982;-24
2022/01/29 10:31:40;;;;;;;2.90;0.60;;;;;;;-2.09;63.20;98851.98;104835;1271;61155;-24
2022/01/29 10:34:23;;;;;;;1.00;0.60;;;;;;;-2.12;63.30;98859.22;104839;1271;61108;-23
2022/01/29 10:37:12;;;;;;;2.20;0.70;;;;;;;-2.16;62.75;98855.60;105088;1271;74986;-22
2022/01/29 10:40:00;;;;;;;1.80;1.10;;;;;;;-2.16;63.15;98855.26;104976;1271;76549;-22
2022/01/29 10:42:37;;;;;;;2.50;0.70;;;;;;;-2.17;62.73;98855.62;104742;1274;71582;-23
2022/01/29 10:45:07;;;;;;;1.50;0.50;;;;;;;-2.17;64.13;98858.02;104783;1271;61175;-22
2022/01/29 10:47:51;;;;;;;2.50;0.90;;;;;;;-2.15;63.32;98851.33;104768;1271;61170;-22
2022/01/29 10:50:20;;;;;;;0.50;0.50;;;;;;;-2.17;63.56;98849.33;104801;1271;74467;-22
2022/01/29 10:52:49;;;;;;;1.30;0.90;;;;;;;-2.15;63.72;98845.71;104982;1271;75965;-23
2022/01/29 10:55:17;;;;;;;1.90;0.70;;;;;;;-2.13;63.56;98844.10;104881;1274;73471;-22
2022/01/29 10:57:48;;;;;;;1.50;0.50;;;;;;;-2.11;62.91;98833.52;104816;1271;61140;-22
2022/01/29 11:00:22;;;;;;;2.00;1.50;;;;;;;-2.17;62.48;98842.70;104816;1271;61847;-22
2022/01/29 11:02:54;;;;;;;1.60;0.70;;;;;;;-2.20;62.11;98845.35;105076;1271;73368;-22
2022/01/29 11:05:25;;;;;;;2.40;0.50;;;;;;;-2.11;62.00;98843.52;105112;1271;74948;-22
2022/01/29 11:07:56;;;;;;;2.40;0.50;;;;;;;-2.15;61.91;98842.80;104985;1271;73370;-23
2022/01/29 11:10:29;;;;;;;1.60;0.50;;;;;;;-2.15;61.73;98855.23;104780;1271;61150;-22
2022/01/29 11:12:57;;;;;;;1.00;0.50;;;;;;;-2.13;61.87;98854.13;104802;1271;62055;-22
2022/01/29 11:15:26;;;;;;;1.60;0.70;;;;;;;-2.21;61.53;98852.04;104650;1274;73849;-22
2022/01/29 11:17:55;;;;;;;1.80;0.70;;;;;;;-2.17;61.76;98852.25;104878;1271;76381;-23
2022/01/29 11:20:24;;;;;;;1.60;0.60;;;;;;;-2.20;61.17;98851.65;104762;1274;73359;-24
2022/01/29 11:22:54;;;;;;;1.90;0.70;;;;;;;-2.19;61.46;98858.26;105133;1271;61048;-22
2022/01/29 11:25:30;;;;;;;2.60;0.60;;;;;;;-2.16;61.74;98863.27;105124;1271;61130;-23
2022/01/29 11:28:18;;;;;;;1.00;0.60;;;;;;;-2.13;59.76;98857.89;105162;1270;73345;-24
2022/01/29 11:31:07;;;;;;;1.10;0.70;;;;;;;-1.96;59.67;98858.54;104992;1274;74616;-23
2022/01/29 11:33:58;;;;;;;2.30;0.80;;;;;;;-1.83;59.35;98857.94;104913;1271;74325;-23
2022/01/29 11:36:48;;;;;;;1.00;0.70;;;;;;;-1.78;59.49;98869.16;104833;1271;61027;-23
2022/01/29 11:39:22;;;;;;;3.50;0.80;;;;;;;-1.64;59.85;98865.30;104760;1273;61137;-23
2022/01/29 11:42:15;;;;;;;5.80;0.60;;;;;;;-1.66;59.51;98862.14;104666;1274;73390;-23
2022/01/29 11:44:44;;;;;;;2.40;0.80;;;;;;;-1.60;59.69;98857.51;104867;1271;74049;-24
2022/01/29 11:47:25;;;;;;;1.60;0.60;;;;;;;-1.64;59.92;98853.19;104851;1271;72340;-23
2022/01/29 11:50:24;;;;;;;1.10;0.50;;;;;;;-1.66;58.73;98852.09;104855;1271;61179;-23
2022/01/29 11:52:59;;;;;;;1.10;0.60;;;;;;;-1.73;58.18;98842.60;104960;1271;61079;-23